WETO2: N Canadian River, Wetumka, OK

Data processed at Tue Jan 16 2018 23:29


All information presented herein is the property of the government of the United States of America and may be revised or deleted at any time without prior notice.
Dissemination of this information without the expressed written consent of the Public Affairs Office, Tulsa District U.S. Army Corps of Engineers is strictly prohibited.
These data are gathered electronically and, as presented, have not undergone any form of quality control. These data are not guaranteed to be valid or correct.
Go to home page.
Go to station list.

Upstream stations:

Downstream station:
Previous Day
Next Day
Current Day
    
SHEF ID:       WETO2     North Canadian River near Wetumk
STATION TYPE:  

               PRECIP     STAGE  RIV-FLOW  BAT-LOAD
                   in        ft       cfs      volt
              Ccp-Rev   Ccp-Rev   Ccp-Rev   Ccp-Rev
(US/Central)
01/14 00:00      0.00      5.51       226     12.73
01/14 01:00      0.00      5.50       223     12.73
01/14 02:00      0.00      5.50       223     12.73
01/14 03:00      0.00      5.51       226     12.65
01/14 04:00      0.00      5.51       226     12.65
01/14 05:00      0.00      5.50       223     12.65
01/14 06:00      0.00      5.50       223     12.65
01/14 07:00      0.00      5.50       223     12.65
01/14 08:00      0.00      5.50       223     12.65
01/14 09:00      0.00      5.51       226     12.65
01/14 10:00      0.00      5.50       223     13.13
01/14 11:00      0.00      5.50       223     13.60
01/14 12:00      0.00      5.50       223     13.68
01/14 13:00      0.00      5.50       223     13.60
01/14 14:00      0.00      5.49       220     13.37
01/14 15:00      0.00      5.48       216     13.44
01/14 16:00      0.00      5.48       216     13.37
01/14 17:00      0.00      5.47       213     13.29
01/14 18:00      0.00      5.46       210     13.05
01/14 19:00      0.00      5.48       216     12.97
01/14 20:00      0.00      5.47       213     12.89
01/14 21:00      0.00      5.48       216     12.89
01/14 22:00      0.00      5.49       220     12.81
01/14 23:00      0.00      5.48       216     12.81